Time;durP1;ratioP1;P1;durP2;ratioP2;P2;SDS_P1;SDS_P2;PMS_P1;PMS_P2;Temp;Humidity;BMP_temperature;BMP_pressure;BME280_temperature;BME280_humidity;BME280_pressure;Samples;Min_cycle;Max_cycle;Signal;HPM_P1;HPM_P2
2022/06/26 00:00:04;;;;;;;4.97;2.58;;;;;;;19.46;80.60;97919.59;4503939;31;20088;-85
2022/06/26 00:02:31;;;;;;;3.67;2.12;;;;;;;20.22;76.94;97921.19;4503685;31;20416;-85
2022/06/26 00:04:58;;;;;;;4.65;2.40;;;;;;;20.04;77.08;97922.72;4503832;31;20127;-85
2022/06/26 00:07:25;;;;;;;5.22;2.50;;;;;;;19.99;76.86;97917.00;4503804;31;20087;-85
2022/06/26 00:09:52;;;;;;;5.75;2.55;;;;;;;19.59;79.12;97921.16;4503515;31;20175;-85
2022/06/26 00:12:19;;;;;;;4.87;2.42;;;;;;;19.81;78.12;97928.06;4503828;31;20115;-85
2022/06/26 00:14:46;;;;;;;5.22;2.50;;;;;;;19.81;77.97;97922.84;4503584;31;20104;-85
2022/06/26 00:17:13;;;;;;;4.55;2.37;;;;;;;19.99;77.41;97922.25;4503150;31;20160;-84
2022/06/26 00:19:40;;;;;;;5.28;2.33;;;;;;;20.56;74.98;97921.81;4503866;31;20099;-85
2022/06/26 00:22:08;;;;;;;4.60;2.60;;;;;;;19.68;78.79;97932.66;4503732;31;20752;-85
2022/06/26 00:24:36;;;;;;;5.05;2.40;;;;;;;19.89;78.26;97930.06;4503367;31;20460;-85
2022/06/26 00:27:06;;;;;;;5.43;2.33;;;;;;;20.82;74.21;97943.16;4503667;31;20083;-85
2022/06/26 00:29:34;;;;;;;5.05;2.53;;;;;;;20.99;72.72;97939.09;4503665;31;20091;-85
2022/06/26 00:32:02;;;;;;;5.50;2.60;;;;;;;20.78;73.11;97934.72;4502313;31;20111;-85
2022/06/26 00:34:29;;;;;;;4.60;2.10;;;;;;;20.55;74.22;97943.75;4503462;31;20163;-85
2022/06/26 00:36:56;;;;;;;4.82;2.50;;;;;;;20.02;76.06;97953.44;4503535;31;20110;-85
2022/06/26 00:39:23;;;;;;;3.92;2.30;;;;;;;19.94;76.63;97946.22;4503369;31;20155;-85
2022/06/26 00:41:53;;;;;;;4.55;2.62;;;;;;;20.23;75.50;97949.03;4503584;31;20092;-85
2022/06/26 00:44:22;;;;;;;5.62;2.45;;;;;;;20.17;75.70;97947.75;4503592;31;20430;-85
2022/06/26 00:46:50;;;;;;;5.50;2.50;;;;;;;20.66;74.00;97945.44;4503242;31;20102;-85
2022/06/26 00:49:17;;;;;;;5.50;2.53;;;;;;;20.34;75.31;97943.72;4503579;31;20072;-85
2022/06/26 00:51:47;;;;;;;7.30;2.40;;;;;;;20.02;76.71;97953.44;4503316;31;20136;-85
2022/06/26 00:54:14;;;;;;;5.20;2.60;;;;;;;19.86;77.00;97959.09;4503471;31;20134;-85
2022/06/26 00:56:41;;;;;;;5.82;2.60;;;;;;;19.59;78.79;97960.41;4502423;31;20170;-85
2022/06/26 00:59:09;;;;;;;4.82;2.65;;;;;;;20.18;76.77;97959.88;4501845;31;20152;-85
2022/06/26 01:01:36;;;;;;;4.87;2.62;;;;;;;20.36;75.59;97957.53;4503399;31;20130;-85
2022/06/26 01:04:04;;;;;;;4.97;2.60;;;;;;;20.21;75.49;97959.66;4503546;31;20096;-85
2022/06/26 01:06:31;;;;;;;4.15;2.33;;;;;;;20.13;76.00;97958.63;4503086;31;20101;-85
2022/06/26 01:08:59;;;;;;;4.47;2.33;;;;;;;19.97;75.83;97964.28;4502344;31;20482;-85
2022/06/26 01:11:27;;;;;;;5.05;2.58;;;;;;;19.75;76.36;97967.00;4503425;31;20208;-85
2022/06/26 01:13:57;;;;;;;5.32;2.87;;;;;;;19.89;74.89;97959.69;4503019;31;20139;-85
2022/06/26 01:16:24;;;;;;;7.32;2.78;;;;;;;19.35;76.37;97960.56;4503210;31;20170;-85
2022/06/26 01:18:54;;;;;;;5.10;2.83;;;;;;;18.92;79.05;97965.69;4503062;31;20072;-85
2022/06/26 01:21:21;;;;;;;5.25;2.87;;;;;;;18.82;80.16;97962.16;4503023;31;20414;-85
2022/06/26 01:23:48;;;;;;;6.03;3.62;;;;;;;18.33;82.53;97963.25;4503334;31;20505;-85
2022/06/26 01:26:16;;;;;;;8.80;2.97;;;;;;;18.29;82.64;97963.59;4503152;31;20170;-85
2022/06/26 01:28:44;;;;;;;4.97;2.60;;;;;;;18.30;82.81;97968.72;4503023;31;20099;-85
2022/06/26 01:31:11;;;;;;;6.20;2.60;;;;;;;18.89;80.31;97959.88;4503301;31;20446;-85
2022/06/26 01:33:38;;;;;;;4.78;2.30;;;;;;;18.88;79.01;97959.06;4503149;31;20190;-85
2022/06/26 01:36:06;;;;;;;4.97;2.55;;;;;;;18.76;79.11;97963.47;4501640;31;20080;-85
2022/06/26 01:38:33;;;;;;;6.18;2.83;;;;;;;18.44;80.31;97959.84;4503224;31;20076;-85
2022/06/26 01:41:00;;;;;;;5.57;2.67;;;;;;;18.69;79.24;97959.63;4502891;31;20136;-85
2022/06/26 01:43:30;;;;;;;5.53;2.60;;;;;;;18.63;79.83;97967.09;4503189;31;20638;-85
2022/06/26 01:45:58;;;;;;;5.87;2.87;;;;;;;18.63;79.64;97959.28;4503066;31;20096;-85
2022/06/26 01:48:25;;;;;;;5.55;2.87;;;;;;;18.64;79.23;97964.41;4502848;31;20365;-85
2022/06/26 01:50:55;;;;;;;5.45;2.78;;;;;;;18.45;79.98;97961.50;4503173;31;20493;-85
2022/06/26 01:53:22;;;;;;;6.32;2.87;;;;;;;18.47;79.83;97967.44;4503240;31;20464;-85
2022/06/26 01:55:50;;;;;;;5.53;2.80;;;;;;;18.59;79.38;97960.44;4502562;31;20098;-85
2022/06/26 01:58:17;;;;;;;6.37;3.00;;;;;;;19.02;77.90;97961.41;4502998;31;20076;-85
2022/06/26 02:00:46;;;;;;;5.10;2.90;;;;;;;19.14;77.71;97964.00;4503102;31;20426;-85
2022/06/26 02:03:16;;;;;;;7.03;3.00;;;;;;;18.91;78.72;97961.41;4502685;31;20167;-85
2022/06/26 02:05:43;;;;;;;5.78;3.05;;;;;;;18.53;80.27;97966.97;4502746;31;20162;-85
2022/06/26 02:08:10;;;;;;;7.68;3.12;;;;;;;18.49;80.87;97968.97;4502790;31;20080;-85
2022/06/26 02:13:36;;;;;;;5.40;2.80;;;;;;;18.87;78.59;97970.47;4502968;31;20137;-85
2022/06/26 02:16:15;;;;;;;6.28;2.75;;;;;;;19.02;77.89;97971.88;4502312;31;20103;-85
2022/06/26 02:18:44;;;;;;;5.70;2.92;;;;;;;18.72;79.43;97966.44;4502086;31;20103;-86
2022/06/26 02:21:13;;;;;;;5.12;2.67;;;;;;;18.49;80.83;97962.91;4502769;31;20116;-86
2022/06/26 02:23:42;;;;;;;7.18;2.60;;;;;;;18.78;80.31;97974.63;4502346;31;20167;-85
2022/06/26 02:26:09;;;;;;;6.07;2.60;;;;;;;18.57;80.98;97976.22;4502410;31;20509;-85
2022/06/26 02:28:38;;;;;;;6.30;2.90;;;;;;;18.29;82.51;97980.13;4502673;31;20608;-85
2022/06/26 02:31:05;;;;;;;4.80;2.70;;;;;;;18.23;83.48;97979.72;4502239;31;20160;-86
2022/06/26 02:33:34;;;;;;;9.15;2.95;;;;;;;18.03;84.63;97989.87;4502519;31;20155;-85
2022/06/26 02:36:06;;;;;;;6.68;3.28;;;;;;;18.06;84.98;97981.81;4502457;31;20088;-86
2022/06/26 02:38:34;;;;;;;6.93;3.25;;;;;;;18.37;85.21;97984.75;4500818;31;20104;-86
2022/06/26 02:41:01;;;;;;;5.35;3.10;;;;;;;18.84;83.64;97986.41;4502512;31;20463;-86
2022/06/26 02:43:29;;;;;;;6.93;3.00;;;;;;;18.83;83.51;97986.53;4502425;31;20084;-86
2022/06/26 02:45:56;;;;;;;6.15;3.10;;;;;;;18.65;84.58;97986.97;4501887;31;20457;-86
2022/06/26 02:48:23;;;;;;;6.22;3.12;;;;;;;18.75;84.72;97993.16;4502471;31;20107;-86
2022/06/26 02:50:50;;;;;;;6.57;3.03;;;;;;;19.11;83.32;97991.25;4502400;31;20149;-86
2022/06/26 02:53:18;;;;;;;5.75;2.90;;;;;;;19.10;82.62;97980.91;4501942;31;20096;-85
2022/06/26 02:55:45;;;;;;;6.28;3.22;;;;;;;19.28;82.43;97993.38;4501975;31;20106;-85
2022/06/26 02:58:12;;;;;;;5.47;3.00;;;;;;;19.72;80.96;97994.25;4501880;31;20136;-85
2022/06/26 03:00:39;;;;;;;5.25;3.00;;;;;;;19.37;82.69;97994.44;4502118;31;20100;-86
2022/06/26 03:03:06;;;;;;;7.70;2.75;;;;;;;19.75;81.33;97996.63;4502174;31;20430;-86
2022/06/26 03:05:33;;;;;;;7.32;3.00;;;;;;;19.89;80.43;97998.16;4501546;31;20095;-86
2022/06/26 03:08:00;;;;;;;6.97;3.42;;;;;;;20.09;79.66;97997.31;4502016;31;20147;-86
2022/06/26 03:10:27;;;;;;;8.35;3.22;;;;;;;19.82;81.25;98002.19;4501987;31;20164;-86
2022/06/26 03:12:54;;;;;;;6.40;3.28;;;;;;;19.99;81.24;97998.19;4501704;31;20111;-86
2022/06/26 03:15:21;;;;;;;5.53;2.90;;;;;;;20.14;81.01;97996.94;4501700;31;20159;-86
2022/06/26 03:17:48;;;;;;;6.37;3.20;;;;;;;20.44;79.90;97999.69;4501611;31;20140;-85
2022/06/26 03:20:17;;;;;;;5.32;2.92;;;;;;;20.97;77.54;97999.56;4501512;31;20096;-86
2022/06/26 03:22:44;;;;;;;6.03;3.10;;;;;;;21.23;76.50;98005.16;4501974;31;20111;-86
2022/06/26 03:25:12;;;;;;;5.50;2.78;;;;;;;21.56;74.54;98003.19;4501702;31;20497;-85
2022/06/26 03:27:39;;;;;;;6.80;2.50;;;;;;;21.98;72.35;98003.81;4501410;31;20713;-86
2022/06/26 03:30:08;;;;;;;4.93;2.70;;;;;;;22.13;71.17;98005.09;4501838;31;20103;-85
2022/06/26 03:32:35;;;;;;;4.47;2.50;;;;;;;22.07;71.01;98005.63;4503830;31;20524;-86
2022/06/26 03:35:03;;;;;;;6.28;3.10;;;;;;;21.43;74.61;98000.00;4503748;31;20146;-85
2022/06/26 03:37:30;;;;;;;7.07;2.92;;;;;;;21.41;74.43;97997.50;4503538;31;20076;-85
2022/06/26 03:39:57;;;;;;;5.93;2.87;;;;;;;21.15;76.58;97998.91;4504996;31;20104;-85
2022/06/26 03:42:24;;;;;;;5.80;2.60;;;;;;;21.06;77.28;98003.19;4505251;31;20104;-85
2022/06/26 03:44:52;;;;;;;4.85;2.83;;;;;;;22.18;73.22;98002.84;4505878;31;20827;-85
2022/06/26 03:47:20;;;;;;;4.82;2.60;;;;;;;22.98;70.08;97998.16;4505501;31;20080;-85
2022/06/26 03:49:47;;;;;;;3.40;2.28;;;;;;;23.71;66.30;98012.19;4505286;31;20056;-85
2022/06/26 03:52:13;;;;;;;4.70;2.47;;;;;;;23.81;64.92;98012.13;4504487;31;20148;-85
2022/06/26 03:54:40;;;;;;;5.30;2.65;;;;;;;23.37;65.73;98004.87;4503680;31;20083;-85
2022/06/26 03:57:08;;;;;;;6.40;3.05;;;;;;;22.79;68.57;98013.00;4504008;31;20092;-85
2022/06/26 03:59:36;;;;;;;6.53;3.05;;;;;;;22.58;70.19;98009.72;4503978;31;20163;-86
2022/06/26 04:02:03;;;;;;;6.87;2.95;;;;;;;22.39;71.32;98007.97;4504135;31;20065;-86
2022/06/26 04:04:31;;;;;;;7.18;3.10;;;;;;;22.56;71.26;98006.41;4505025;31;20437;-85
2022/06/26 04:06:58;;;;;;;7.68;3.10;;;;;;;23.04;70.15;98016.00;4505909;31;20068;-85
2022/06/26 04:09:24;;;;;;;5.00;2.65;;;;;;;23.73;67.75;98012.06;4506502;31;20387;-85
2022/06/26 04:11:51;;;;;;;6.85;3.05;;;;;;;24.61;64.43;98010.38;4506265;31;20736;-85
2022/06/26 04:14:19;;;;;;;6.32;2.80;;;;;;;24.92;62.68;98013.38;4504901;31;20104;-84
2022/06/26 04:16:46;;;;;;;5.20;2.60;;;;;;;25.36;62.03;98016.75;4506307;31;20493;-85
2022/06/26 04:19:13;;;;;;;6.62;2.78;;;;;;;25.71;60.03;98021.00;4505785;31;20100;-85
2022/06/26 04:21:40;;;;;;;6.45;2.80;;;;;;;25.78;59.94;98014.09;4506990;31;20127;-85
2022/06/26 04:24:07;;;;;;;4.85;2.85;;;;;;;25.85;59.46;98022.22;4505363;31;20138;-85
2022/06/26 04:26:34;;;;;;;5.30;2.50;;;;;;;25.66;60.37;98020.63;4505889;31;20080;-85
2022/06/26 04:29:01;;;;;;;3.90;2.50;;;;;;;25.80;60.23;98027.13;4507333;31;20115;-85
2022/06/26 04:31:28;;;;;;;5.95;2.80;;;;;;;26.27;59.00;98024.72;4508153;31;20100;-85
2022/06/26 04:33:55;;;;;;;5.15;2.60;;;;;;;26.70;56.88;98025.41;4508448;31;20103;-85
2022/06/26 04:36:22;;;;;;;5.30;2.55;;;;;;;26.62;57.03;98023.56;4508242;31;20072;-85
2022/06/26 04:38:49;;;;;;;5.05;2.67;;;;;;;26.79;55.89;98021.72;4508852;31;20164;-86
2022/06/26 04:41:31;;;;;;;5.00;2.70;;;;;;;27.37;54.66;98024.06;4508911;31;20073;-86
2022/06/26 04:43:58;;;;;;;4.93;3.10;;;;;;;27.38;54.25;98027.53;4508522;31;20195;-86
2022/06/26 04:46:25;;;;;;;5.70;3.08;;;;;;;28.05;52.57;98035.81;4509215;31;20099;-86
2022/06/26 04:48:52;;;;;;;4.93;2.87;;;;;;;29.30;49.11;98038.84;4509642;31;20107;-86
2022/06/26 04:51:19;;;;;;;7.00;3.00;;;;;;;30.09;46.59;98042.47;4509182;31;20075;-86
2022/06/26 04:53:46;;;;;;;3.70;2.60;;;;;;;31.07;44.32;98036.34;4509281;31;20088;-86
2022/06/26 04:56:13;;;;;;;5.37;2.58;;;;;;;31.35;42.77;98048.81;4508870;31;20080;-87
2022/06/26 04:58:41;;;;;;;4.68;2.50;;;;;;;31.60;41.70;98041.97;4508621;31;20127;-87
2022/06/26 05:01:08;;;;;;;4.30;2.50;;;;;;;31.50;41.90;98046.03;4509141;31;20668;-86
2022/06/26 05:03:35;;;;;;;7.28;2.78;;;;;;;31.54;42.32;98047.28;4509406;31;20092;-86
2022/06/26 05:06:05;;;;;;;4.03;2.35;;;;;;;31.24;42.44;98046.72;4508160;31;20061;-86
2022/06/26 05:08:32;;;;;;;5.35;2.58;;;;;;;30.39;43.46;98051.16;4508109;31;20152;-86
2022/06/26 05:10:59;;;;;;;4.20;2.75;;;;;;;29.94;45.52;98047.00;4508275;31;20148;-86
2022/06/26 05:13:26;;;;;;;5.35;2.62;;;;;;;29.99;45.73;98049.94;4508843;31;20123;-86
2022/06/26 05:15:53;;;;;;;4.10;2.40;;;;;;;30.80;43.70;98051.31;4508555;31;20478;-86
2022/06/26 05:18:20;;;;;;;3.97;2.35;;;;;;;30.23;44.68;98048.78;4507260;31;20359;-86
2022/06/26 05:20:47;;;;;;;4.60;2.40;;;;;;;29.83;45.32;98050.16;4507029;31;20106;-86
2022/06/26 05:23:14;;;;;;;3.95;2.10;;;;;;;30.07;44.77;98055.16;4508938;31;20102;-86
2022/06/26 05:25:42;;;;;;;2.70;2.00;;;;;;;29.98;44.90;98058.09;4508711;31;20084;-86
2022/06/26 05:28:10;;;;;;;3.80;2.30;;;;;;;30.57;43.18;98061.34;4507606;31;20155;-86
2022/06/26 05:30:37;;;;;;;3.50;2.28;;;;;;;30.42;43.45;98052.63;4507143;31;20076;-86
2022/06/26 05:33:04;;;;;;;3.33;2.20;;;;;;;30.05;44.48;98062.47;4506104;31;20168;-87
2022/06/26 05:35:31;;;;;;;3.20;2.20;;;;;;;29.46;45.69;98054.59;4505445;31;20143;-87
2022/06/26 05:37:58;;;;;;;5.90;2.65;;;;;;;29.23;46.80;98057.34;4507007;31;20134;-87
2022/06/26 05:40:25;;;;;;;3.83;2.45;;;;;;;29.48;46.33;98063.25;4508704;31;20171;-86
2022/06/26 05:42:56;;;;;;;4.20;2.40;;;;;;;30.37;44.28;98061.19;4510220;31;20135;-87
2022/06/26 05:45:24;;;;;;;3.42;2.10;;;;;;;31.28;41.82;98056.78;4511183;31;20109;-86
2022/06/26 05:47:51;;;;;;;4.20;2.10;;;;;;;32.68;38.58;98063.38;4512255;31;20061;-87
2022/06/26 05:50:18;;;;;;;3.58;2.10;;;;;;;31.89;40.42;98067.53;4511917;31;20136;-87
2022/06/26 05:52:45;;;;;;;4.57;2.15;;;;;;;33.45;37.27;98073.37;4512407;31;20116;-87
2022/06/26 05:55:15;;;;;;;4.45;2.40;;;;;;;34.55;34.54;98075.91;4510071;31;20147;-87
2022/06/26 05:57:42;;;;;;;2.90;1.90;;;;;;;34.68;33.94;98076.66;4511374;31;20171;-86
2022/06/26 06:00:11;;;;;;;2.62;2.03;;;;;;;34.66;34.73;98072.53;4511635;31;20060;-87
2022/06/26 06:02:39;;;;;;;5.43;2.15;;;;;;;34.58;33.76;98081.66;4510590;31;20107;-87
2022/06/26 06:05:07;;;;;;;4.68;2.30;;;;;;;35.91;31.88;98078.50;4509402;31;20661;-87
2022/06/26 06:07:36;;;;;;;3.47;2.15;;;;;;;36.57;30.75;98090.97;4508764;31;20164;-87
2022/06/26 06:10:05;;;;;;;3.33;1.90;;;;;;;35.79;31.57;98077.59;4508881;31;20141;-87
2022/06/26 06:12:32;;;;;;;5.80;1.95;;;;;;;36.28;31.03;98081.09;4508237;31;20080;-87
2022/06/26 06:14:59;;;;;;;5.57;2.50;;;;;;;36.70;29.82;98085.41;4505976;31;20108;-88
2022/06/26 06:17:41;;;;;;;4.40;2.30;;;;;;;35.78;31.25;98082.16;4507716;31;20084;-86
2022/06/26 06:20:12;;;;;;;3.67;2.28;;;;;;;34.56;33.09;98089.13;4509096;31;20101;-87
2022/06/26 06:22:41;;;;;;;5.78;2.30;;;;;;;32.29;38.54;98083.66;4507241;31;20106;-87
2022/06/26 06:25:08;;;;;;;2.78;2.10;;;;;;;32.06;37.35;98076.00;4507395;31;20092;-87
2022/06/26 06:27:42;;;;;;;4.80;2.03;;;;;;;33.17;35.93;98083.47;4507318;31;20151;-87
2022/06/26 06:30:10;;;;;;;3.78;2.12;;;;;;;32.85;37.09;98082.50;4507499;31;20097;-87
2022/06/26 06:32:37;;;;;;;5.82;2.40;;;;;;;31.89;37.30;98075.53;4508908;31;20209;-86
2022/06/26 06:35:05;;;;;;;3.85;2.30;;;;;;;30.89;39.80;98080.47;4510006;31;20113;-86
2022/06/26 06:37:32;;;;;;;4.28;2.40;;;;;;;30.80;39.74;98085.94;4507941;31;20096;-86
2022/06/26 06:40:00;;;;;;;4.28;2.33;;;;;;;31.11;40.08;98082.06;4507385;31;20172;-87
2022/06/26 06:42:27;;;;;;;3.22;2.20;;;;;;;31.63;37.72;98078.91;4506767;31;20075;-85
2022/06/26 06:44:54;;;;;;;2.85;2.17;;;;;;;31.12;37.57;98081.06;4505858;31;20128;-87
2022/06/26 06:47:21;;;;;;;5.00;2.20;;;;;;;30.99;38.27;98079.13;4505903;31;20131;-86
2022/06/26 06:49:48;;;;;;;2.97;2.20;;;;;;;30.74;38.95;98084.06;4505861;31;20631;-86
2022/06/26 06:52:15;;;;;;;4.78;2.40;;;;;;;30.85;38.25;98082.72;4507920;31;20139;-86
2022/06/26 06:54:42;;;;;;;4.32;2.17;;;;;;;29.63;41.75;98077.34;4507902;31;20218;-86
2022/06/26 06:57:09;;;;;;;2.28;1.85;;;;;;;29.75;41.88;98071.53;4505864;31;20068;-87
2022/06/26 06:59:36;;;;;;;3.20;2.00;;;;;;;30.40;39.96;98079.41;4505646;31;20136;-87
2022/06/26 07:02:04;;;;;;;3.78;1.77;;;;;;;30.92;39.30;98085.41;4505918;31;20116;-87
2022/06/26 07:04:31;;;;;;;2.70;1.73;;;;;;;30.36;39.06;98085.34;4507816;31;20100;-86
2022/06/26 07:06:58;;;;;;;2.72;1.60;;;;;;;30.39;38.06;98079.63;4508313;31;20097;-87
2022/06/26 07:09:25;;;;;;;2.05;1.70;;;;;;;29.77;40.11;98086.28;4510291;31;20075;-86
2022/06/26 07:11:52;;;;;;;2.87;1.60;;;;;;;30.60;37.54;98087.59;4509078;31;20111;-87
2022/06/26 07:14:25;;;;;;;1.58;1.40;;;;;;;30.29;38.18;98093.25;4508619;31;20074;-85
2022/06/26 07:16:52;;;;;;;3.30;1.50;;;;;;;29.78;38.98;98081.81;4511030;31;20089;-86
2022/06/26 07:19:19;;;;;;;4.32;1.60;;;;;;;29.44;41.00;98080.53;4510493;31;20510;-86
2022/06/26 07:21:46;;;;;;;2.33;1.30;;;;;;;28.50;43.24;98080.13;4511026;31;20143;-86
2022/06/26 07:24:14;;;;;;;3.85;1.60;;;;;;;28.41;43.23;98081.19;4509129;31;20438;-86
2022/06/26 07:26:41;;;;;;;2.33;1.58;;;;;;;28.98;41.95;98075.38;4508704;31;20075;-86
2022/06/26 07:29:09;;;;;;;2.22;1.52;;;;;;;28.27;43.08;98071.28;4508387;31;20123;-86
2022/06/26 07:31:35;;;;;;;3.30;1.50;;;;;;;29.57;40.94;98077.28;4508638;31;20103;-84
2022/06/26 07:34:16;;;;;;;3.20;1.50;;;;;;;29.54;41.74;98083.75;4507227;31;20384;-86
2022/06/26 07:36:45;;;;;;;3.97;1.60;;;;;;;28.93;42.01;98084.94;4507590;31;20088;-85
2022/06/26 07:39:13;;;;;;;2.97;1.37;;;;;;;29.07;42.16;98079.63;4506206;31;20151;-86
2022/06/26 07:41:41;;;;;;;2.25;1.50;;;;;;;30.20;40.62;98084.59;4507112;31;20164;-86
2022/06/26 07:44:08;;;;;;;3.75;1.60;;;;;;;30.38;40.39;98081.47;4506583;31;20152;-86
2022/06/26 07:46:36;;;;;;;3.20;1.30;;;;;;;30.59;38.85;98087.78;4506586;31;20402;-86
2022/06/26 07:49:05;;;;;;;3.67;1.50;;;;;;;31.02;36.78;98085.91;4506607;31;20092;-86
2022/06/26 07:51:33;;;;;;;3.35;1.40;;;;;;;29.82;40.83;98072.44;4506318;31;20103;-87
2022/06/26 07:54:00;;;;;;;2.37;1.37;;;;;;;31.57;37.04;98093.00;4505740;31;20096;-87
2022/06/26 07:56:27;;;;;;;2.33;1.30;;;;;;;31.98;35.89;98081.50;4505766;31;20100;-88
2022/06/26 07:58:55;;;;;;;1.27;1.17;;;;;;;31.93;35.46;98073.31;4505707;31;20160;-87
2022/06/26 08:01:22;;;;;;;2.25;1.23;;;;;;;31.74;36.53;98085.50;4503507;31;20127;-88
2022/06/26 08:03:49;;;;;;;2.22;1.30;;;;;;;31.98;35.75;98083.34;4505211;31;20103;-87
2022/06/26 08:06:16;;;;;;;3.15;1.40;;;;;;;31.94;36.34;98074.94;4505236;31;20450;-87
2022/06/26 08:08:43;;;;;;;1.67;1.27;;;;;;;32.40;35.16;98084.91;4504766;31;20116;-87
2022/06/26 08:11:10;;;;;;;2.30;1.30;;;;;;;32.41;35.71;98091.91;4504895;31;20103;-87
2022/06/26 08:13:37;;;;;;;3.65;1.65;;;;;;;32.48;36.08;98092.75;4504599;31;20100;-87
2022/06/26 08:16:04;;;;;;;2.00;1.40;;;;;;;32.20;35.59;98088.34;4503906;31;20160;-87
2022/06/26 08:18:32;;;;;;;1.85;1.50;;;;;;;32.92;34.53;98094.00;4503381;31;20073;-87
2022/06/26 08:22:00;;;;;;;4.18;1.70;;;;;;;32.59;35.08;98086.78;4504605;31;20139;-87
2022/06/26 08:23:46;;;;;;;2.05;1.30;;;;;;;32.37;35.06;98085.34;4506469;31;20088;-86
2022/06/26 08:26:13;;;;;;;4.07;1.67;;;;;;;31.48;36.88;98086.22;4504459;31;20476;-87
2022/06/26 08:28:40;;;;;;;3.17;1.50;;;;;;;31.75;37.11;98089.84;4504506;31;20135;-86
2022/06/26 08:31:07;;;;;;;2.03;1.30;;;;;;;30.59;38.45;98085.94;4504412;31;20143;-86
2022/06/26 08:33:34;;;;;;;5.85;1.42;;;;;;;30.44;39.48;98087.87;4504559;31;20076;-86
2022/06/26 08:36:01;;;;;;;2.55;1.40;;;;;;;31.01;37.37;98093.06;4504189;31;20143;-87
2022/06/26 08:38:28;;;;;;;4.18;1.50;;;;;;;32.13;35.50;98084.03;4504558;31;20128;-87
2022/06/26 08:41:00;;;;;;;3.42;1.77;;;;;;;32.81;34.54;98090.91;4504486;31;20132;-87
2022/06/26 08:43:27;;;;;;;5.30;1.77;;;;;;;32.08;36.04;98084.62;4504205;31;20147;-86
2022/06/26 08:46:04;;;;;;;3.85;1.65;;;;;;;32.42;36.16;98086.34;4503802;31;20104;-86
2022/06/26 08:48:42;;;;;;;4.37;1.55;;;;;;;32.37;34.79;98093.34;4504797;31;20605;-86
2022/06/26 08:51:10;;;;;;;2.03;1.30;;;;;;;31.76;36.34;98094.16;4504814;31;20103;-86
2022/06/26 08:53:37;;;;;;;2.22;1.50;;;;;;;31.85;36.39;98090.31;4503963;31;20080;-87
2022/06/26 08:56:04;;;;;;;3.67;1.45;;;;;;;32.76;34.88;98088.03;4502057;31;20151;-87
2022/06/26 08:58:31;;;;;;;2.55;1.50;;;;;;;32.61;34.75;98091.91;4504504;31;20167;-87
2022/06/26 09:00:58;;;;;;;2.75;1.55;;;;;;;33.43;33.76;98093.34;4506093;31;20172;-87
2022/06/26 09:03:26;;;;;;;2.67;1.50;;;;;;;32.12;35.87;98095.75;4505330;31;20068;-86
2022/06/26 09:05:52;;;;;;;2.72;1.50;;;;;;;31.49;37.48;98092.38;4505303;31;20102;-86
2022/06/26 09:08:21;;;;;;;2.28;1.40;;;;;;;31.50;37.29;98096.69;4505826;31;20112;-86
2022/06/26 09:10:49;;;;;;;2.35;1.60;;;;;;;30.90;38.88;98090.13;4504931;31;20151;-86
2022/06/26 09:13:16;;;;;;;1.90;1.40;;;;;;;31.00;38.56;98091.44;4505039;31;20100;-86
2022/06/26 09:15:44;;;;;;;1.90;1.50;;;;;;;30.85;39.04;98092.56;4503381;31;20116;-86
2022/06/26 09:18:13;;;;;;;2.00;1.50;;;;;;;31.16;38.06;98090.31;4503906;31;20127;-87
2022/06/26 09:20:52;;;;;;;2.92;1.70;;;;;;;32.69;35.35;98089.06;4505089;31;20088;-88
2022/06/26 09:23:20;;;;;;;1.80;1.30;;;;;;;33.37;33.65;98092.31;4505510;31;20536;-88
2022/06/26 09:25:48;;;;;;;4.10;1.37;;;;;;;33.82;33.75;98085.19;4506111;31;20104;-88
2022/06/26 09:28:17;;;;;;;2.33;1.40;;;;;;;33.64;33.19;98091.22;4505058;31;20092;-88
2022/06/26 09:30:46;;;;;;;3.00;1.35;;;;;;;33.76;32.40;98086.00;4503270;31;20102;-87
2022/06/26 09:33:13;;;;;;;1.87;1.25;;;;;;;33.35;33.35;98097.88;4503639;31;20091;-87
2022/06/26 09:35:40;;;;;;;2.35;1.50;;;;;;;34.45;32.80;98096.00;4504624;31;20092;-88
2022/06/26 09:38:07;;;;;;;4.60;1.60;;;;;;;35.15;31.34;98092.31;4504356;31;20140;-87
2022/06/26 09:40:34;;;;;;;2.17;1.42;;;;;;;33.26;34.50;98092.91;4504362;31;20112;-87
2022/06/26 09:43:01;;;;;;;4.05;1.40;;;;;;;33.10;35.07;98094.19;4503186;31;20143;-87
2022/06/26 09:45:39;;;;;;;2.80;1.37;;;;;;;33.77;32.79;98093.00;4503509;31;20108;-87
2022/06/26 09:48:09;;;;;;;1.95;1.33;;;;;;;34.62;31.49;98098.94;4503632;31;20104;-87
2022/06/26 09:50:37;;;;;;;2.67;1.50;;;;;;;34.74;31.86;98096.37;4504036;31;20569;-87
2022/06/26 09:53:05;;;;;;;3.72;1.40;;;;;;;34.47;31.12;98096.59;4504731;31;20084;-86
2022/06/26 09:55:32;;;;;;;2.33;1.60;;;;;;;34.07;31.83;98097.84;4504481;31;20092;-86
2022/06/26 09:57:59;;;;;;;1.87;1.30;;;;;;;33.71;33.08;98093.00;4503554;31;20476;-87
2022/06/26 10:00:29;;;;;;;3.20;1.40;;;;;;;33.47;33.15;98091.88;4503660;31;20078;-87
2022/06/26 10:08:29;;;;;;;3.37;1.50;;;;;;;35.34;29.58;98089.44;4503670;31;20108;-87
2022/06/26 10:10:59;;;;;;;1.95;1.40;;;;;;;34.22;30.58;98084.97;4503265;31;20540;-86
2022/06/26 10:13:28;;;;;;;4.18;1.50;;;;;;;34.46;31.03;98094.13;4503374;31;20156;-86
2022/06/26 10:16:10;;;;;;;2.00;1.30;;;;;;;33.69;31.77;98090.56;4503569;31;20100;-86
2022/06/26 10:18:46;;;;;;;2.10;1.58;;;;;;;33.04;33.13;98087.81;4501990;31;20100;-86
2022/06/26 10:21:13;;;;;;;2.30;1.30;;;;;;;33.04;32.97;98087.81;4501448;31;20470;-87
2022/06/26 10:23:42;;;;;;;3.05;1.60;;;;;;;33.11;32.48;98084.34;4503664;31;20089;-87
2022/06/26 10:26:14;;;;;;;5.57;1.87;;;;;;;33.87;35.08;98090.72;4502734;31;20107;-87
2022/06/26 10:29:03;;;;;;;3.95;1.80;;;;;;;33.57;36.88;98094.94;4503829;31;20175;-87
2022/06/26 10:31:47;;;;;;;3.17;1.70;;;;;;;32.81;38.10;98088.22;4504122;31;20076;-87
2022/06/26 10:34:23;;;;;;;2.12;1.60;;;;;;;32.84;37.45;98087.00;4503945;31;20077;-87
2022/06/26 10:37:10;;;;;;;4.87;1.60;;;;;;;33.56;34.42;98079.91;4503687;31;20092;-88
2022/06/26 10:39:42;;;;;;;3.45;1.60;;;;;;;34.06;33.47;98082.81;4503713;31;20100;-87
2022/06/26 10:45:19;;;;;;;2.00;1.40;;;;;;;33.60;32.18;98075.78;4505368;31;20477;-86
2022/06/26 10:47:51;;;;;;;3.55;1.58;;;;;;;31.31;35.88;98069.72;4506003;31;20104;-86
2022/06/26 10:50:38;;;;;;;5.57;1.70;;;;;;;32.34;35.44;98077.75;4505744;31;20747;-86
2022/06/26 10:53:31;;;;;;;2.37;1.50;;;;;;;32.00;35.59;98070.63;4505894;31;20084;-86
2022/06/26 10:56:00;;;;;;;2.25;1.40;;;;;;;31.93;35.13;98076.78;4505691;31;20091;-86
2022/06/26 10:58:30;;;;;;;2.60;1.30;;;;;;;32.20;34.50;98079.50;4506490;31;20079;-86
2022/06/26 11:01:02;;;;;;;1.98;1.40;;;;;;;32.44;35.19;98078.97;4506818;31;20104;-86
2022/06/26 11:03:30;;;;;;;3.30;1.40;;;;;;;32.33;34.89;98084.94;4505422;31;20084;-86
2022/06/26 11:06:00;;;;;;;3.78;1.80;;;;;;;32.29;36.27;98080.16;4505461;31;20076;-86
2022/06/26 11:08:32;;;;;;;2.53;1.60;;;;;;;32.64;36.95;98078.16;4505655;31;20108;-86
2022/06/26 11:11:14;;;;;;;4.28;1.70;;;;;;;30.88;40.79;98076.19;4505018;31;20088;-86
2022/06/26 11:13:55;;;;;;;2.83;1.60;;;;;;;30.31;43.34;98059.31;4504695;31;20080;-86
2022/06/26 11:16:48;;;;;;;3.37;1.52;;;;;;;30.23;42.16;98068.22;4505662;31;20151;-85
2022/06/26 11:19:29;;;;;;;4.22;1.98;;;;;;;29.99;42.59;98067.72;4503051;31;20723;-85
2022/06/26 11:22:07;;;;;;;4.53;1.80;;;;;;;29.83;43.78;98058.13;4505373;31;20111;-85
2022/06/26 11:24:35;;;;;;;3.30;1.80;;;;;;;29.54;45.02;98065.16;4505515;31;20152;-85
2022/06/26 11:27:02;;;;;;;2.60;1.70;;;;;;;29.64;44.77;98072.84;4504671;31;20084;-86
2022/06/26 11:29:29;;;;;;;2.83;1.80;;;;;;;30.08;43.07;98070.09;4506473;31;20085;-86
2022/06/26 11:31:57;;;;;;;2.85;1.87;;;;;;;30.08;41.77;98066.63;4506463;31;20171;-86
2022/06/26 11:34:24;;;;;;;4.57;1.65;;;;;;;30.70;40.67;98061.50;4505214;31;20128;-86
2022/06/26 11:36:56;;;;;;;2.95;1.70;;;;;;;31.27;39.95;98070.31;4506950;31;20111;-86
2022/06/26 11:39:45;;;;;;;4.37;1.65;;;;;;;31.40;39.44;98069.56;4506484;31;20092;-86
2022/06/26 11:42:13;;;;;;;;;;;;;;;30.96;40.41;98068.03;4506305;31;20457;-86
2022/06/26 11:44:50;;;;;;;2.50;1.50;;;;;;;30.99;41.57;98076.47;4504367;31;20413;-85
2022/06/26 11:47:18;;;;;;;4.62;1.85;;;;;;;31.01;40.74;98073.59;4505471;31;20168;-86
2022/06/26 11:49:46;;;;;;;2.90;1.50;;;;;;;30.65;41.71;98074.56;4505093;31;20111;-86
2022/06/26 11:52:13;;;;;;;2.92;1.55;;;;;;;30.92;40.26;98067.59;4504848;31;20135;-86